sensor_id;sensor_type;location;lat;lon;timestamp;P1;durP1;ratioP1;P2;durP2;ratioP2
47103;SDS011;32853;52.164;5.400;2023-07-13T00:01:50;13.52;;;1.38;;
47103;SDS011;32853;52.164;5.400;2023-07-13T00:04:17;5.18;;;1.27;;
47103;SDS011;32853;52.164;5.400;2023-07-13T00:06:44;10.40;;;1.10;;
47103;SDS011;32853;52.164;5.400;2023-07-13T00:09:11;10.68;;;0.90;;
47103;SDS011;32853;52.164;5.400;2023-07-13T00:11:38;11.27;;;1.33;;
47103;SDS011;32853;52.164;5.400;2023-07-13T00:14:04;15.30;;;1.20;;
47103;SDS011;32853;52.164;5.400;2023-07-13T00:16:32;11.55;;;1.25;;
47103;SDS011;32853;52.164;5.400;2023-07-13T00:19:02;6.28;;;0.80;;
47103;SDS011;32853;52.164;5.400;2023-07-13T00:21:28;8.40;;;1.20;;
47103;SDS011;32853;52.164;5.400;2023-07-13T00:23:57;12.82;;;0.70;;
47103;SDS011;32853;52.164;5.400;2023-07-13T00:26:23;11.63;;;1.17;;
47103;SDS011;32853;52.164;5.400;2023-07-13T00:28:48;16.40;;;1.45;;
47103;SDS011;32853;52.164;5.400;2023-07-13T00:31:14;11.07;;;1.70;;
47103;SDS011;32853;52.164;5.400;2023-07-13T00:33:40;10.40;;;1.90;;
47103;SDS011;32853;52.164;5.400;2023-07-13T00:36:07;4.38;;;1.38;;
47103;SDS011;32853;52.164;5.400;2023-07-13T00:38:35;4.72;;;1.10;;
47103;SDS011;32853;52.164;5.400;2023-07-13T00:41:02;11.93;;;1.33;;
47103;SDS011;32853;52.164;5.400;2023-07-13T00:43:29;5.75;;;1.15;;
47103;SDS011;32853;52.164;5.400;2023-07-13T00:48:27;15.10;;;2.97;;
47103;SDS011;32853;52.164;5.400;2023-07-13T00:50:56;7.95;;;1.08;;
47103;SDS011;32853;52.164;5.400;2023-07-13T00:53:27;11.07;;;1.13;;
47103;SDS011;32853;52.164;5.400;2023-07-13T00:55:56;5.85;;;0.60;;
47103;SDS011;32853;52.164;5.400;2023-07-13T00:58:25;2.08;;;0.75;;
47103;SDS011;32853;52.164;5.400;2023-07-13T01:00:52;11.77;;;1.23;;
47103;SDS011;32853;52.164;5.400;2023-07-13T01:03:19;6.13;;;1.08;;
47103;SDS011;32853;52.164;5.400;2023-07-13T01:05:46;8.43;;;1.02;;
47103;SDS011;32853;52.164;5.400;2023-07-13T01:08:13;4.15;;;1.40;;
47103;SDS011;32853;52.164;5.400;2023-07-13T01:10:39;4.18;;;0.93;;
47103;SDS011;32853;52.164;5.400;2023-07-13T01:13:08;9.30;;;0.80;;
47103;SDS011;32853;52.164;5.400;2023-07-13T01:15:42;8.88;;;1.20;;
47103;SDS011;32853;52.164;5.400;2023-07-13T01:18:10;6.63;;;0.80;;
47103;SDS011;32853;52.164;5.400;2023-07-13T01:20:39;7.28;;;1.25;;
47103;SDS011;32853;52.164;5.400;2023-07-13T01:23:05;5.65;;;0.80;;
47103;SDS011;32853;52.164;5.400;2023-07-13T01:25:32;8.65;;;0.75;;
47103;SDS011;32853;52.164;5.400;2023-07-13T01:27:59;3.75;;;0.93;;
47103;SDS011;32853;52.164;5.400;2023-07-13T01:30:35;6.03;;;1.13;;
47103;SDS011;32853;52.164;5.400;2023-07-13T01:33:05;5.07;;;0.90;;
47103;SDS011;32853;52.164;5.400;2023-07-13T01:35:32;4.55;;;1.23;;
47103;SDS011;32853;52.164;5.400;2023-07-13T01:37:58;6.20;;;1.05;;
47103;SDS011;32853;52.164;5.400;2023-07-13T01:40:25;5.35;;;1.00;;
47103;SDS011;32853;52.164;5.400;2023-07-13T01:42:54;3.92;;;0.90;;
47103;SDS011;32853;52.164;5.400;2023-07-13T01:45:23;8.32;;;1.75;;
47103;SDS011;32853;52.164;5.400;2023-07-13T01:47:49;7.97;;;1.02;;
47103;SDS011;32853;52.164;5.400;2023-07-13T01:50:15;7.53;;;1.20;;
47103;SDS011;32853;52.164;5.400;2023-07-13T01:52:41;2.45;;;0.77;;
47103;SDS011;32853;52.164;5.400;2023-07-13T01:55:06;8.38;;;1.35;;
47103;SDS011;32853;52.164;5.400;2023-07-13T02:00:24;7.80;;;1.30;;
47103;SDS011;32853;52.164;5.400;2023-07-13T02:06:00;19.00;;;2.05;;
47103;SDS011;32853;52.164;5.400;2023-07-13T02:08:40;6.03;;;1.48;;
47103;SDS011;32853;52.164;5.400;2023-07-13T02:11:08;10.00;;;1.35;;
47103;SDS011;32853;52.164;5.400;2023-07-13T02:13:34;3.58;;;0.80;;
47103;SDS011;32853;52.164;5.400;2023-07-13T02:16:01;4.53;;;1.15;;
47103;SDS011;32853;52.164;5.400;2023-07-13T02:18:33;9.13;;;1.50;;
47103;SDS011;32853;52.164;5.400;2023-07-13T02:24:06;5.25;;;0.90;;
47103;SDS011;32853;52.164;5.400;2023-07-13T02:26:32;12.63;;;1.05;;
47103;SDS011;32853;52.164;5.400;2023-07-13T02:28:57;6.53;;;1.10;;
47103;SDS011;32853;52.164;5.400;2023-07-13T02:31:22;5.07;;;0.98;;
47103;SDS011;32853;52.164;5.400;2023-07-13T02:33:58;10.43;;;1.40;;
47103;SDS011;32853;52.164;5.400;2023-07-13T02:36:31;9.45;;;1.27;;
47103;SDS011;32853;52.164;5.400;2023-07-13T02:39:03;10.27;;;1.25;;
47103;SDS011;32853;52.164;5.400;2023-07-13T02:41:47;7.57;;;1.75;;
47103;SDS011;32853;52.164;5.400;2023-07-13T02:44:13;11.13;;;2.63;;
47103;SDS011;32853;52.164;5.400;2023-07-13T02:46:39;10.95;;;1.35;;
47103;SDS011;32853;52.164;5.400;2023-07-13T02:49:05;10.27;;;1.42;;
47103;SDS011;32853;52.164;5.400;2023-07-13T02:51:33;4.43;;;1.17;;
47103;SDS011;32853;52.164;5.400;2023-07-13T02:54:04;7.63;;;1.30;;
47103;SDS011;32853;52.164;5.400;2023-07-13T02:56:30;5.90;;;1.10;;
47103;SDS011;32853;52.164;5.400;2023-07-13T02:58:58;7.07;;;1.33;;
47103;SDS011;32853;52.164;5.400;2023-07-13T03:01:28;11.55;;;1.38;;
47103;SDS011;32853;52.164;5.400;2023-07-13T03:03:53;12.32;;;2.15;;
47103;SDS011;32853;52.164;5.400;2023-07-13T03:06:18;8.20;;;1.02;;
47103;SDS011;32853;52.164;5.400;2023-07-13T03:08:53;7.00;;;2.45;;
47103;SDS011;32853;52.164;5.400;2023-07-13T03:11:19;5.00;;;1.45;;
47103;SDS011;32853;52.164;5.400;2023-07-13T03:13:48;13.48;;;1.20;;
47103;SDS011;32853;52.164;5.400;2023-07-13T03:16:29;12.73;;;2.78;;
47103;SDS011;32853;52.164;5.400;2023-07-13T03:18:54;6.22;;;1.38;;
47103;SDS011;32853;52.164;5.400;2023-07-13T03:21:20;10.05;;;1.48;;
47103;SDS011;32853;52.164;5.400;2023-07-13T03:23:45;12.48;;;2.55;;
47103;SDS011;32853;52.164;5.400;2023-07-13T03:26:19;6.80;;;1.35;;
47103;SDS011;32853;52.164;5.400;2023-07-13T03:28:45;8.52;;;1.60;;
47103;SDS011;32853;52.164;5.400;2023-07-13T03:31:18;10.50;;;1.73;;
47103;SDS011;32853;52.164;5.400;2023-07-13T03:33:45;8.98;;;1.80;;
47103;SDS011;32853;52.164;5.400;2023-07-13T03:36:29;7.50;;;1.20;;
47103;SDS011;32853;52.164;5.400;2023-07-13T03:38:59;7.60;;;1.58;;
47103;SDS011;32853;52.164;5.400;2023-07-13T03:41:28;8.52;;;1.45;;
47103;SDS011;32853;52.164;5.400;2023-07-13T03:43:55;8.82;;;1.20;;
47103;SDS011;32853;52.164;5.400;2023-07-13T03:46:23;6.05;;;1.67;;
47103;SDS011;32853;52.164;5.400;2023-07-13T03:48:49;6.55;;;1.40;;
47103;SDS011;32853;52.164;5.400;2023-07-13T03:51:17;10.32;;;2.20;;
47103;SDS011;32853;52.164;5.400;2023-07-13T03:53:43;6.68;;;1.58;;
47103;SDS011;32853;52.164;5.400;2023-07-13T03:56:11;6.00;;;1.48;;
47103;SDS011;32853;52.164;5.400;2023-07-13T03:58:40;13.23;;;2.05;;
47103;SDS011;32853;52.164;5.400;2023-07-13T04:01:08;8.20;;;1.83;;
47103;SDS011;32853;52.164;5.400;2023-07-13T04:03:48;14.30;;;5.18;;
47103;SDS011;32853;52.164;5.400;2023-07-13T04:06:22;19.90;;;3.55;;
47103;SDS011;32853;52.164;5.400;2023-07-13T04:11:43;6.25;;;1.55;;
47103;SDS011;32853;52.164;5.400;2023-07-13T04:14:12;7.80;;;1.88;;
47103;SDS011;32853;52.164;5.400;2023-07-13T04:19:08;5.85;;;1.77;;
47103;SDS011;32853;52.164;5.400;2023-07-13T04:21:35;8.10;;;2.45;;
47103;SDS011;32853;52.164;5.400;2023-07-13T04:26:41;10.98;;;2.67;;
47103;SDS011;32853;52.164;5.400;2023-07-13T04:29:07;5.40;;;2.00;;
47103;SDS011;32853;52.164;5.400;2023-07-13T04:31:33;9.82;;;2.38;;
47103;SDS011;32853;52.164;5.400;2023-07-13T04:34:06;15.90;;;3.33;;
47103;SDS011;32853;52.164;5.400;2023-07-13T04:36:40;9.25;;;2.00;;
47103;SDS011;32853;52.164;5.400;2023-07-13T04:39:13;11.02;;;2.92;;
47103;SDS011;32853;52.164;5.400;2023-07-13T04:41:38;12.07;;;2.85;;
47103;SDS011;32853;52.164;5.400;2023-07-13T04:44:04;9.98;;;2.45;;
47103;SDS011;32853;52.164;5.400;2023-07-13T04:46:34;17.00;;;2.72;;
47103;SDS011;32853;52.164;5.400;2023-07-13T04:48:59;7.05;;;2.13;;
47103;SDS011;32853;52.164;5.400;2023-07-13T04:51:25;10.40;;;2.65;;
47103;SDS011;32853;52.164;5.400;2023-07-13T04:53:51;9.85;;;2.47;;
47103;SDS011;32853;52.164;5.400;2023-07-13T04:56:16;12.48;;;4.25;;
47103;SDS011;32853;52.164;5.400;2023-07-13T04:58:46;13.90;;;3.80;;
47103;SDS011;32853;52.164;5.400;2023-07-13T05:01:11;19.73;;;3.05;;
47103;SDS011;32853;52.164;5.400;2023-07-13T05:03:39;8.38;;;2.42;;
47103;SDS011;32853;52.164;5.400;2023-07-13T05:06:05;19.75;;;3.28;;
47103;SDS011;32853;52.164;5.400;2023-07-13T05:08:32;22.05;;;3.17;;
47103;SDS011;32853;52.164;5.400;2023-07-13T05:10:59;18.48;;;2.63;;
47103;SDS011;32853;52.164;5.400;2023-07-13T05:13:27;13.05;;;3.25;;
47103;SDS011;32853;52.164;5.400;2023-07-13T05:15:57;18.55;;;3.10;;
47103;SDS011;32853;52.164;5.400;2023-07-13T05:18:30;14.52;;;3.38;;
47103;SDS011;32853;52.164;5.400;2023-07-13T05:21:07;18.13;;;3.25;;
47103;SDS011;32853;52.164;5.400;2023-07-13T05:23:38;11.30;;;3.63;;
47103;SDS011;32853;52.164;5.400;2023-07-13T05:26:04;12.73;;;3.47;;
47103;SDS011;32853;52.164;5.400;2023-07-13T05:28:32;15.35;;;4.05;;
47103;SDS011;32853;52.164;5.400;2023-07-13T05:30:58;14.73;;;3.58;;
47103;SDS011;32853;52.164;5.400;2023-07-13T05:33:23;14.27;;;3.63;;
47103;SDS011;32853;52.164;5.400;2023-07-13T05:38:18;17.27;;;3.95;;
47103;SDS011;32853;52.164;5.400;2023-07-13T05:40:44;20.55;;;4.78;;
47103;SDS011;32853;52.164;5.400;2023-07-13T05:43:11;13.52;;;4.40;;
47103;SDS011;32853;52.164;5.400;2023-07-13T05:45:37;20.58;;;5.28;;
47103;SDS011;32853;52.164;5.400;2023-07-13T05:48:02;22.45;;;4.72;;
47103;SDS011;32853;52.164;5.400;2023-07-13T05:50:37;21.50;;;5.30;;
47103;SDS011;32853;52.164;5.400;2023-07-13T05:53:02;17.90;;;5.68;;
47103;SDS011;32853;52.164;5.400;2023-07-13T05:55:28;16.85;;;5.22;;
47103;SDS011;32853;52.164;5.400;2023-07-13T05:57:53;15.13;;;4.45;;
47103;SDS011;32853;52.164;5.400;2023-07-13T06:00:18;18.92;;;5.65;;
47103;SDS011;32853;52.164;5.400;2023-07-13T06:02:48;16.10;;;5.32;;
47103;SDS011;32853;52.164;5.400;2023-07-13T06:05:13;16.05;;;4.72;;
47103;SDS011;32853;52.164;5.400;2023-07-13T06:07:39;14.98;;;5.45;;
47103;SDS011;32853;52.164;5.400;2023-07-13T06:10:04;22.73;;;5.63;;
47103;SDS011;32853;52.164;5.400;2023-07-13T06:12:30;19.67;;;5.20;;
47103;SDS011;32853;52.164;5.400;2023-07-13T06:14:55;13.93;;;5.75;;
47103;SDS011;32853;52.164;5.400;2023-07-13T06:17:21;6.00;;;4.03;;
47103;SDS011;32853;52.164;5.400;2023-07-13T06:19:46;22.80;;;5.35;;
47103;SDS011;32853;52.164;5.400;2023-07-13T06:22:12;20.10;;;5.38;;
47103;SDS011;32853;52.164;5.400;2023-07-13T06:24:37;12.60;;;5.35;;
47103;SDS011;32853;52.164;5.400;2023-07-13T06:27:02;20.30;;;6.32;;
47103;SDS011;32853;52.164;5.400;2023-07-13T06:29:28;15.90;;;4.78;;
47103;SDS011;32853;52.164;5.400;2023-07-13T06:31:53;21.85;;;6.75;;
47103;SDS011;32853;52.164;5.400;2023-07-13T06:34:19;18.40;;;6.22;;
47103;SDS011;32853;52.164;5.400;2023-07-13T06:36:45;18.33;;;5.68;;
47103;SDS011;32853;52.164;5.400;2023-07-13T06:39:12;20.35;;;5.22;;
47103;SDS011;32853;52.164;5.400;2023-07-13T06:41:38;16.23;;;5.43;;
47103;SDS011;32853;52.164;5.400;2023-07-13T06:44:07;18.55;;;6.15;;
47103;SDS011;32853;52.164;5.400;2023-07-13T06:46:32;19.58;;;5.78;;
47103;SDS011;32853;52.164;5.400;2023-07-13T06:48:58;17.52;;;5.88;;
47103;SDS011;32853;52.164;5.400;2023-07-13T06:51:23;20.13;;;6.18;;
47103;SDS011;32853;52.164;5.400;2023-07-13T06:53:48;22.73;;;5.05;;
47103;SDS011;32853;52.164;5.400;2023-07-13T06:56:15;20.60;;;5.57;;
47103;SDS011;32853;52.164;5.400;2023-07-13T06:58:40;25.48;;;6.43;;
47103;SDS011;32853;52.164;5.400;2023-07-13T07:01:06;15.52;;;5.22;;
47103;SDS011;32853;52.164;5.400;2023-07-13T07:03:32;15.73;;;5.78;;
47103;SDS011;32853;52.164;5.400;2023-07-13T07:06:01;18.48;;;7.35;;
47103;SDS011;32853;52.164;5.400;2023-07-13T07:08:50;21.33;;;6.53;;
47103;SDS011;32853;52.164;5.400;2023-07-13T07:11:18;26.15;;;7.70;;
47103;SDS011;32853;52.164;5.400;2023-07-13T07:13:45;20.48;;;6.35;;
47103;SDS011;32853;52.164;5.400;2023-07-13T07:16:11;14.50;;;6.07;;
47103;SDS011;32853;52.164;5.400;2023-07-13T07:18:36;26.95;;;9.30;;
47103;SDS011;32853;52.164;5.400;2023-07-13T07:21:02;21.13;;;6.55;;
47103;SDS011;32853;52.164;5.400;2023-07-13T07:23:31;20.15;;;5.97;;
47103;SDS011;32853;52.164;5.400;2023-07-13T07:25:59;11.53;;;5.30;;
47103;SDS011;32853;52.164;5.400;2023-07-13T07:28:24;19.85;;;7.28;;
47103;SDS011;32853;52.164;5.400;2023-07-13T07:30:52;13.95;;;6.93;;
47103;SDS011;32853;52.164;5.400;2023-07-13T07:33:18;23.98;;;6.88;;
47103;SDS011;32853;52.164;5.400;2023-07-13T07:35:44;18.50;;;6.40;;
47103;SDS011;32853;52.164;5.400;2023-07-13T07:38:09;24.92;;;7.07;;
47103;SDS011;32853;52.164;5.400;2023-07-13T07:40:45;19.80;;;5.97;;
47103;SDS011;32853;52.164;5.400;2023-07-13T07:43:11;12.40;;;4.93;;
47103;SDS011;32853;52.164;5.400;2023-07-13T07:45:39;17.58;;;5.15;;
47103;SDS011;32853;52.164;5.400;2023-07-13T07:50:45;18.25;;;5.82;;
47103;SDS011;32853;52.164;5.400;2023-07-13T07:53:11;22.73;;;6.32;;
47103;SDS011;32853;52.164;5.400;2023-07-13T07:55:37;19.30;;;6.65;;
47103;SDS011;32853;52.164;5.400;2023-07-13T07:58:03;25.08;;;6.78;;
47103;SDS011;32853;52.164;5.400;2023-07-13T08:00:28;31.25;;;8.55;;
47103;SDS011;32853;52.164;5.400;2023-07-13T08:02:56;24.17;;;7.40;;
47103;SDS011;32853;52.164;5.400;2023-07-13T08:05:22;25.08;;;8.13;;
47103;SDS011;32853;52.164;5.400;2023-07-13T08:07:47;22.20;;;7.53;;
47103;SDS011;32853;52.164;5.400;2023-07-13T08:10:12;18.75;;;6.75;;
47103;SDS011;32853;52.164;5.400;2023-07-13T08:12:38;17.52;;;6.40;;
47103;SDS011;32853;52.164;5.400;2023-07-13T08:15:04;18.55;;;7.18;;
47103;SDS011;32853;52.164;5.400;2023-07-13T08:17:30;20.38;;;6.80;;
47103;SDS011;32853;52.164;5.400;2023-07-13T08:19:57;7.53;;;4.63;;
47103;SDS011;32853;52.164;5.400;2023-07-13T08:22:23;20.02;;;5.03;;
47103;SDS011;32853;52.164;5.400;2023-07-13T08:24:49;9.27;;;3.83;;
47103;SDS011;32853;52.164;5.400;2023-07-13T08:27:21;8.65;;;4.53;;
47103;SDS011;32853;52.164;5.400;2023-07-13T08:29:47;13.38;;;4.25;;
47103;SDS011;32853;52.164;5.400;2023-07-13T08:32:16;25.85;;;4.10;;
47103;SDS011;32853;52.164;5.400;2023-07-13T08:34:43;12.48;;;3.47;;
47103;SDS011;32853;52.164;5.400;2023-07-13T08:37:08;9.73;;;4.30;;
47103;SDS011;32853;52.164;5.400;2023-07-13T08:42:07;7.22;;;3.05;;
47103;SDS011;32853;52.164;5.400;2023-07-13T08:47:40;9.23;;;3.00;;
47103;SDS011;32853;52.164;5.400;2023-07-13T08:50:17;9.82;;;2.35;;
47103;SDS011;32853;52.164;5.400;2023-07-13T08:52:44;3.90;;;1.35;;
47103;SDS011;32853;52.164;5.400;2023-07-13T08:57:50;7.57;;;1.50;;
47103;SDS011;32853;52.164;5.400;2023-07-13T09:00:31;4.45;;;0.82;;
47103;SDS011;32853;52.164;5.400;2023-07-13T09:03:25;4.20;;;1.00;;
47103;SDS011;32853;52.164;5.400;2023-07-13T09:06:03;2.60;;;0.80;;
47103;SDS011;32853;52.164;5.400;2023-07-13T09:17:11;1.48;;;0.93;;
47103;SDS011;32853;52.164;5.400;2023-07-13T09:20:03;6.40;;;1.20;;
47103;SDS011;32853;52.164;5.400;2023-07-13T09:22:52;4.90;;;2.15;;
47103;SDS011;32853;52.164;5.400;2023-07-13T09:25:42;9.60;;;2.40;;
47103;SDS011;32853;52.164;5.400;2023-07-13T09:28:24;4.63;;;1.83;;
47103;SDS011;32853;52.164;5.400;2023-07-13T09:31:03;3.55;;;1.42;;
47103;SDS011;32853;52.164;5.400;2023-07-13T09:33:42;5.13;;;1.55;;
47103;SDS011;32853;52.164;5.400;2023-07-13T09:36:23;6.47;;;2.60;;
47103;SDS011;32853;52.164;5.400;2023-07-13T09:39:10;7.38;;;1.63;;
47103;SDS011;32853;52.164;5.400;2023-07-13T09:41:57;8.15;;;1.33;;
47103;SDS011;32853;52.164;5.400;2023-07-13T09:47:19;4.80;;;2.20;;
47103;SDS011;32853;52.164;5.400;2023-07-13T09:49:57;3.80;;;1.70;;
47103;SDS011;32853;52.164;5.400;2023-07-13T09:52:28;5.32;;;1.95;;
47103;SDS011;32853;52.164;5.400;2023-07-13T09:55:23;4.68;;;1.70;;
47103;SDS011;32853;52.164;5.400;2023-07-13T09:57:51;4.57;;;1.63;;
47103;SDS011;32853;52.164;5.400;2023-07-13T10:00:22;4.13;;;1.33;;
47103;SDS011;32853;52.164;5.400;2023-07-13T10:05:51;2.80;;;1.35;;
47103;SDS011;32853;52.164;5.400;2023-07-13T10:08:31;7.32;;;1.40;;
47103;SDS011;32853;52.164;5.400;2023-07-13T10:14:20;2.13;;;1.27;;
47103;SDS011;32853;52.164;5.400;2023-07-13T10:16:52;2.97;;;1.38;;
47103;SDS011;32853;52.164;5.400;2023-07-13T10:19:36;7.32;;;1.73;;
47103;SDS011;32853;52.164;5.400;2023-07-13T10:22:29;4.30;;;1.48;;
47103;SDS011;32853;52.164;5.400;2023-07-13T10:25:19;7.13;;;2.35;;
47103;SDS011;32853;52.164;5.400;2023-07-13T10:27:48;8.55;;;1.75;;
47103;SDS011;32853;52.164;5.400;2023-07-13T10:30:24;6.35;;;1.73;;
47103;SDS011;32853;52.164;5.400;2023-07-13T10:32:58;5.82;;;1.40;;
47103;SDS011;32853;52.164;5.400;2023-07-13T10:35:32;4.65;;;1.60;;
47103;SDS011;32853;52.164;5.400;2023-07-13T10:38:00;7.10;;;2.42;;
47103;SDS011;32853;52.164;5.400;2023-07-13T10:40:40;5.78;;;1.83;;
47103;SDS011;32853;52.164;5.400;2023-07-13T10:43:29;5.35;;;1.63;;
47103;SDS011;32853;52.164;5.400;2023-07-13T10:46:08;4.07;;;1.27;;
47103;SDS011;32853;52.164;5.400;2023-07-13T10:48:36;7.80;;;1.80;;
47103;SDS011;32853;52.164;5.400;2023-07-13T10:51:13;7.10;;;1.58;;
47103;SDS011;32853;52.164;5.400;2023-07-13T10:53:42;6.40;;;1.67;;
47103;SDS011;32853;52.164;5.400;2023-07-13T11:04:20;7.15;;;1.40;;
47103;SDS011;32853;52.164;5.400;2023-07-13T11:06:50;4.85;;;1.67;;
47103;SDS011;32853;52.164;5.400;2023-07-13T11:09:33;9.43;;;2.13;;
47103;SDS011;32853;52.164;5.400;2023-07-13T11:20:41;13.77;;;2.05;;
47103;SDS011;32853;52.164;5.400;2023-07-13T11:25:33;14.50;;;2.17;;
47103;SDS011;32853;52.164;5.400;2023-07-13T11:36:14;4.50;;;1.27;;
47103;SDS011;32853;52.164;5.400;2023-07-13T11:41:53;4.55;;;1.60;;
47103;SDS011;32853;52.164;5.400;2023-07-13T11:44:22;4.38;;;2.17;;
47103;SDS011;32853;52.164;5.400;2023-07-13T11:46:50;5.75;;;1.60;;
47103;SDS011;32853;52.164;5.400;2023-07-13T11:49:19;5.72;;;1.50;;
47103;SDS011;32853;52.164;5.400;2023-07-13T11:51:46;6.35;;;2.28;;
47103;SDS011;32853;52.164;5.400;2023-07-13T11:56:53;4.45;;;1.05;;
47103;SDS011;32853;52.164;5.400;2023-07-13T11:59:20;6.57;;;1.30;;
47103;SDS011;32853;52.164;5.400;2023-07-13T12:01:51;9.02;;;1.58;;
47103;SDS011;32853;52.164;5.400;2023-07-13T12:04:23;3.20;;;1.00;;
47103;SDS011;32853;52.164;5.400;2023-07-13T12:09:45;3.40;;;1.30;;
47103;SDS011;32853;52.164;5.400;2023-07-13T12:12:12;3.95;;;1.08;;
47103;SDS011;32853;52.164;5.400;2023-07-13T12:14:42;5.55;;;1.85;;
47103;SDS011;32853;52.164;5.400;2023-07-13T12:17:20;6.43;;;1.42;;
47103;SDS011;32853;52.164;5.400;2023-07-13T12:19:50;4.30;;;1.40;;
47103;SDS011;32853;52.164;5.400;2023-07-13T12:22:19;6.32;;;2.17;;
47103;SDS011;32853;52.164;5.400;2023-07-13T12:24:46;5.13;;;1.23;;
47103;SDS011;32853;52.164;5.400;2023-07-13T12:29:52;10.10;;;1.90;;
47103;SDS011;32853;52.164;5.400;2023-07-13T12:32:23;8.35;;;1.63;;
47103;SDS011;32853;52.164;5.400;2023-07-13T12:34:57;6.30;;;1.25;;
47103;SDS011;32853;52.164;5.400;2023-07-13T12:37:38;8.88;;;1.42;;
47103;SDS011;32853;52.164;5.400;2023-07-13T12:40:12;10.10;;;3.13;;
47103;SDS011;32853;52.164;5.400;2023-07-13T12:42:40;7.35;;;1.10;;
47103;SDS011;32853;52.164;5.400;2023-07-13T12:45:40;5.70;;;1.45;;
47103;SDS011;32853;52.164;5.400;2023-07-13T12:47:59;6.18;;;1.95;;
47103;SDS011;32853;52.164;5.400;2023-07-13T12:50:36;3.95;;;1.10;;
47103;SDS011;32853;52.164;5.400;2023-07-13T12:53:06;5.10;;;1.00;;
47103;SDS011;32853;52.164;5.400;2023-07-13T12:55:48;3.53;;;1.13;;
47103;SDS011;32853;52.164;5.400;2023-07-13T12:58:25;3.90;;;1.33;;
47103;SDS011;32853;52.164;5.400;2023-07-13T13:00:57;4.30;;;1.40;;
47103;SDS011;32853;52.164;5.400;2023-07-13T13:03:34;4.47;;;1.23;;
47103;SDS011;32853;52.164;5.400;2023-07-13T13:08:46;7.57;;;1.23;;
47103;SDS011;32853;52.164;5.400;2023-07-13T13:11:18;3.00;;;0.98;;
47103;SDS011;32853;52.164;5.400;2023-07-13T13:13:50;3.42;;;1.27;;
47103;SDS011;32853;52.164;5.400;2023-07-13T13:18:49;3.10;;;1.20;;
47103;SDS011;32853;52.164;5.400;2023-07-13T13:21:16;5.32;;;1.50;;
47103;SDS011;32853;52.164;5.400;2023-07-13T13:23:43;7.63;;;1.17;;
47103;SDS011;32853;52.164;5.400;2023-07-13T13:26:15;5.10;;;1.20;;
47103;SDS011;32853;52.164;5.400;2023-07-13T13:28:41;2.28;;;1.15;;
47103;SDS011;32853;52.164;5.400;2023-07-13T13:31:09;8.85;;;1.42;;
47103;SDS011;32853;52.164;5.400;2023-07-13T13:33:37;5.82;;;1.50;;
47103;SDS011;32853;52.164;5.400;2023-07-13T13:36:08;4.30;;;1.60;;
47103;SDS011;32853;52.164;5.400;2023-07-13T13:38:38;6.88;;;1.40;;
47103;SDS011;32853;52.164;5.400;2023-07-13T13:41:05;4.20;;;1.17;;
47103;SDS011;32853;52.164;5.400;2023-07-13T13:43:30;8.30;;;1.77;;
47103;SDS011;32853;52.164;5.400;2023-07-13T13:45:56;5.00;;;1.33;;
47103;SDS011;32853;52.164;5.400;2023-07-13T13:48:34;9.90;;;1.67;;
47103;SDS011;32853;52.164;5.400;2023-07-13T13:51:05;4.55;;;1.05;;
47103;SDS011;32853;52.164;5.400;2023-07-13T13:53:54;4.07;;;1.10;;
47103;SDS011;32853;52.164;5.400;2023-07-13T13:56:19;3.60;;;1.33;;
47103;SDS011;32853;52.164;5.400;2023-07-13T13:58:46;4.45;;;0.98;;
47103;SDS011;32853;52.164;5.400;2023-07-13T14:01:18;3.72;;;1.20;;
47103;SDS011;32853;52.164;5.400;2023-07-13T14:03:45;2.35;;;1.38;;
47103;SDS011;32853;52.164;5.400;2023-07-13T14:08:53;6.63;;;2.22;;
47103;SDS011;32853;52.164;5.400;2023-07-13T14:11:20;3.60;;;1.38;;
47103;SDS011;32853;52.164;5.400;2023-07-13T14:13:52;3.88;;;1.00;;
47103;SDS011;32853;52.164;5.400;2023-07-13T14:16:22;3.63;;;1.30;;
47103;SDS011;32853;52.164;5.400;2023-07-13T14:18:53;9.93;;;1.52;;
47103;SDS011;32853;52.164;5.400;2023-07-13T14:21:21;5.53;;;2.17;;
47103;SDS011;32853;52.164;5.400;2023-07-13T14:23:49;4.85;;;1.40;;
47103;SDS011;32853;52.164;5.400;2023-07-13T14:26:22;3.03;;;1.00;;
47103;SDS011;32853;52.164;5.400;2023-07-13T14:28:52;7.97;;;1.45;;
47103;SDS011;32853;52.164;5.400;2023-07-13T14:31:25;6.35;;;1.20;;
47103;SDS011;32853;52.164;5.400;2023-07-13T14:33:53;3.88;;;1.40;;
47103;SDS011;32853;52.164;5.400;2023-07-13T14:36:36;6.68;;;1.00;;
47103;SDS011;32853;52.164;5.400;2023-07-13T14:39:15;3.50;;;0.82;;
47103;SDS011;32853;52.164;5.400;2023-07-13T14:41:46;3.47;;;0.88;;
47103;SDS011;32853;52.164;5.400;2023-07-13T14:44:17;3.97;;;1.15;;
47103;SDS011;32853;52.164;5.400;2023-07-13T14:46:45;1.95;;;0.95;;
47103;SDS011;32853;52.164;5.400;2023-07-13T14:51:51;5.20;;;1.00;;
47103;SDS011;32853;52.164;5.400;2023-07-13T14:54:21;11.52;;;2.55;;
47103;SDS011;32853;52.164;5.400;2023-07-13T14:56:48;4.75;;;1.00;;
47103;SDS011;32853;52.164;5.400;2023-07-13T14:59:14;6.03;;;3.58;;
47103;SDS011;32853;52.164;5.400;2023-07-13T15:01:39;5.95;;;1.20;;
47103;SDS011;32853;52.164;5.400;2023-07-13T15:04:05;3.50;;;1.23;;
47103;SDS011;32853;52.164;5.400;2023-07-13T15:09:20;3.80;;;1.08;;
47103;SDS011;32853;52.164;5.400;2023-07-13T15:11:47;4.05;;;0.98;;
47103;SDS011;32853;52.164;5.400;2023-07-13T15:14:17;3.60;;;1.10;;
47103;SDS011;32853;52.164;5.400;2023-07-13T15:16:49;4.53;;;0.80;;
47103;SDS011;32853;52.164;5.400;2023-07-13T15:19:16;12.05;;;1.02;;
47103;SDS011;32853;52.164;5.400;2023-07-13T15:21:43;2.35;;;0.82;;
47103;SDS011;32853;52.164;5.400;2023-07-13T15:24:26;7.60;;;1.83;;
47103;SDS011;32853;52.164;5.400;2023-07-13T15:26:52;3.33;;;0.80;;
47103;SDS011;32853;52.164;5.400;2023-07-13T15:29:24;1.90;;;0.70;;
47103;SDS011;32853;52.164;5.400;2023-07-13T15:31:49;7.20;;;0.82;;
47103;SDS011;32853;52.164;5.400;2023-07-13T15:34:15;2.20;;;0.90;;
47103;SDS011;32853;52.164;5.400;2023-07-13T15:36:43;3.65;;;0.73;;
47103;SDS011;32853;52.164;5.400;2023-07-13T15:39:13;2.88;;;0.70;;
47103;SDS011;32853;52.164;5.400;2023-07-13T15:41:50;3.67;;;0.80;;
47103;SDS011;32853;52.164;5.400;2023-07-13T15:47:13;3.25;;;0.70;;
47103;SDS011;32853;52.164;5.400;2023-07-13T15:49:39;5.22;;;1.13;;
47103;SDS011;32853;52.164;5.400;2023-07-13T15:52:08;4.25;;;1.20;;
47103;SDS011;32853;52.164;5.400;2023-07-13T15:54:44;8.88;;;1.10;;
47103;SDS011;32853;52.164;5.400;2023-07-13T15:57:15;1.60;;;0.47;;
47103;SDS011;32853;52.164;5.400;2023-07-13T15:59:41;2.40;;;0.70;;
47103;SDS011;32853;52.164;5.400;2023-07-13T16:02:18;2.80;;;1.08;;
47103;SDS011;32853;52.164;5.400;2023-07-13T16:04:45;3.72;;;1.17;;
47103;SDS011;32853;52.164;5.400;2023-07-13T16:07:15;4.30;;;1.10;;
47103;SDS011;32853;52.164;5.400;2023-07-13T16:09:43;0.63;;;0.40;;
47103;SDS011;32853;52.164;5.400;2023-07-13T16:12:11;3.45;;;0.70;;
47103;SDS011;32853;52.164;5.400;2023-07-13T16:14:38;3.45;;;0.88;;
47103;SDS011;32853;52.164;5.400;2023-07-13T16:17:04;4.45;;;0.80;;
47103;SDS011;32853;52.164;5.400;2023-07-13T16:19:31;2.72;;;0.90;;
47103;SDS011;32853;52.164;5.400;2023-07-13T16:21:57;4.57;;;1.55;;
47103;SDS011;32853;52.164;5.400;2023-07-13T16:24:24;1.08;;;0.50;;
47103;SDS011;32853;52.164;5.400;2023-07-13T16:26:51;4.07;;;0.60;;
47103;SDS011;32853;52.164;5.400;2023-07-13T16:32:16;1.88;;;0.80;;
47103;SDS011;32853;52.164;5.400;2023-07-13T16:34:39;1.80;;;0.60;;
47103;SDS011;32853;52.164;5.400;2023-07-13T16:39:50;1.80;;;0.70;;
47103;SDS011;32853;52.164;5.400;2023-07-13T16:42:20;1.38;;;0.50;;
47103;SDS011;32853;52.164;5.400;2023-07-13T16:44:45;3.15;;;1.30;;
47103;SDS011;32853;52.164;5.400;2023-07-13T16:47:12;3.00;;;1.15;;
47103;SDS011;32853;52.164;5.400;2023-07-13T16:49:39;9.20;;;0.60;;